Mnd Bayou, Mississippi
Current Conditions -  °F | °C
As of 8:55 AM on Wednesday 22 Oct 2014 (Local Time) from KRNV Reporting Station
Clear Clear  
Wind Chill: 57°   Ceiling: Unl
Heat Index: 57°   Visibility: 10mi
Dew Point: 51°   Wind: 12mph
Humidity: 82%   Direction: 60°ENE
Pressure: 30.2"   Gusts: NA
Location:  33.8979°N, 90.7189°W
Report Text: KRNV 221355Z AUTO 06010KT 10SM CLR 14/11 A3020 RMK AO2 T01380107
Loading
Personal Weather Stations






























Interactive Weather Map
Tropical Storm Tracking
New forecast layout! Learn more

10-Day Weather Forecast

Advertisements
Track Severe Weather on mobile